Time;durP1;ratioP1;P1;durP2;ratioP2;P2;SDS_P1;SDS_P2;PMS_P1;PMS_P2;Temp;Humidity;BMP_temperature;BMP_pressure;BME280_temperature;BME280_humidity;BME280_pressure;Samples;Min_cycle;Max_cycle;Signal;HPM_P1;HPM_P2
2023/08/01 00:01:13;;;;;;;9.57;4.40;;;19.10;99.90;;;;;;4898230;29;20571;-70
2023/08/01 00:03:38;;;;;;;8.48;4.80;;;19.40;99.90;;;;;;4898834;29;20123;-70
2023/08/01 00:06:04;;;;;;;8.80;4.80;;;;;;;;;;4898787;29;20100;-70
2023/08/01 00:14:45;;;;;;;11.80;4.72;;;19.00;99.90;;;;;;4923841;29;20056;-71
2023/08/01 00:17:56;;;;;;;10.95;4.70;;;19.50;99.90;;;;;;4928047;29;20056;-70
2023/08/01 00:24:08;;;;;;;8.13;4.47;;;18.90;99.90;;;;;;4915201;29;20056;-72
2023/08/01 00:27:10;;;;;;;8.10;4.28;;;19.10;99.90;;;;;;4915712;29;20096;-71
2023/08/01 00:30:04;;;;;;;10.80;4.07;;;19.00;99.90;;;;;;4914948;29;20044;-70
2023/08/01 00:36:13;;;;;;;;;;;;;;;;;;;;;
2023/08/01 00:38:53;;;;;;;11.55;4.82;;;;;;;;;;4913560;29;20056;-71
2023/08/01 00:41:24;;;;;;;12.57;4.93;;;19.40;99.90;;;;;;4915848;29;20044;-71
2023/08/01 00:50:24;;;;;;;;;;;;;;;;;;;;;
2023/08/01 00:55:58;;;;;;;10.27;3.95;;;19.60;99.90;;;;;;4906590;29;20412;-71
2023/08/01 01:01:56;;;;;;;8.02;3.97;;;19.20;99.90;;;;;;4841649;29;20150;-70
2023/08/01 01:07:49;;;;;;;10.70;3.90;;;19.20;99.90;;;;;;4906132;29;20694;-70
2023/08/01 01:13:58;;;;;;;;;;;;;;;;;;;;;
2023/08/01 01:16:46;;;;;;;11.73;3.92;;;19.20;99.90;;;;;;4912043;29;20044;-71
2023/08/01 01:20:04;;;;;;;;;;;;;;;;;;;;;
2023/08/01 01:23:04;;;;;;;8.40;3.97;;;18.80;99.90;;;;;;4914138;29;20052;-70
2023/08/01 01:25:44;;;;;;;8.13;4.07;;;19.20;99.90;;;;;;4909223;29;20059;-69
2023/08/01 01:28:44;;;;;;;;;;;;;;;;;;;;;
2023/08/01 01:31:43;;;;;;;;;;;;;;;;;;;;;
2023/08/01 01:34:48;;;;;;;11.25;4.10;;;19.10;99.90;;;;;;4919019;29;20032;-69
2023/08/01 01:37:58;;;;;;;5.70;3.33;;;19.10;99.90;;;;;;4919127;29;20111;-69
2023/08/01 01:40:30;;;;;;;9.18;4.07;;;18.80;99.90;;;;;;4916616;29;20051;-69
2023/08/01 01:43:41;;;;;;;9.27;4.18;;;19.00;99.90;;;;;;4902766;29;20055;-72
2023/08/01 01:46:10;;;;;;;8.48;3.53;;;18.40;99.90;;;;;;4917680;29;20126;-69
2023/08/01 01:48:42;;;;;;;8.40;4.15;;;18.70;99.90;;;;;;4917405;29;20040;-69
2023/08/01 01:51:49;;;;;;;10.85;3.90;;;18.40;99.90;;;;;;4917068;29;20075;-69
2023/08/01 01:54:44;;;;;;;7.68;3.20;;;18.30;99.90;;;;;;4848056;29;20053;-69
2023/08/01 02:01:17;;;;;;;9.27;3.85;;;18.30;99.90;;;;;;4918947;29;20043;-69
2023/08/01 02:07:43;;;;;;;11.48;4.55;;;18.40;99.90;;;;;;4907060;29;20048;-69
2023/08/01 02:10:40;;;;;;;9.05;3.85;;;18.50;99.90;;;;;;4915136;29;20048;-69
2023/08/01 02:13:42;;;;;;;9.20;4.18;;;18.40;99.90;;;;;;4901506;29;20051;-69
2023/08/01 02:17:07;;;;;;;13.77;4.53;;;18.90;99.90;;;;;;4913225;29;20476;-68
2023/08/01 02:19:59;;;;;;;8.40;4.38;;;18.70;99.90;;;;;;4917254;29;20493;-69
2023/08/01 02:26:29;;;;;;;;;;;;;;;;;;;;;
2023/08/01 02:29:01;;;;;;;12.75;4.70;;;;;;;;;;4917994;29;20044;-70
2023/08/01 02:31:56;;;;;;;15.75;5.65;;;;;;;;;;4916686;29;20044;-71
2023/08/01 02:34:35;;;;;;;11.50;4.88;;;;;;;;;;4917983;29;20040;-71
2023/08/01 02:37:27;;;;;;;10.77;5.47;;;19.00;99.90;;;;;;4916652;29;20120;-71
2023/08/01 02:40:38;;;;;;;10.15;4.93;;;18.40;99.90;;;;;;4900918;29;20046;-70
2023/08/01 02:43:46;;;;;;;16.65;6.60;;;18.40;99.90;;;;;;4914763;29;20056;-70
2023/08/01 02:47:01;;;;;;;14.75;5.25;;;18.80;99.90;;;;;;4901262;29;20040;-71
2023/08/01 02:50:28;;;;;;;12.60;5.95;;;18.70;99.90;;;;;;4900292;29;20419;-70
2023/08/01 02:56:24;;;;;;;8.73;4.57;;;;;;;;;;4903917;29;20051;-71
2023/08/01 02:59:33;;;;;;;12.88;3.80;;;18.60;99.90;;;;;;4917111;29;20040;-70
2023/08/01 03:02:44;;;;;;;;;;;;;;;;;;;;;
2023/08/01 03:06:05;;;;;;;11.18;3.60;;;18.50;99.90;;;;;;4915869;29;20076;-70
2023/08/01 03:08:48;;;;;;;;;;;;;;;;;;;;;
2023/08/01 03:11:25;;;;;;;12.27;2.85;;;;;;;;;;4916051;29;20117;-71
2023/08/01 03:14:05;;;;;;;13.82;2.70;;;18.60;99.90;;;;;;4916433;29;20111;-71
2023/08/01 03:16:47;;;;;;;8.93;2.67;;;;;;;;;;4916621;29;20650;-69
2023/08/01 03:19:22;;;;;;;9.07;2.85;;;18.90;99.90;;;;;;4900315;29;20096;-68
2023/08/01 03:25:18;;;;;;;12.75;3.05;;;18.20;99.90;;;;;;4910217;29;20044;-68
2023/08/01 03:27:54;;;;;;;12.05;2.88;;;18.50;99.90;;;;;;4900142;29;20054;-69
2023/08/01 03:31:00;;;;;;;8.80;3.08;;;18.40;99.90;;;;;;4900725;29;20051;-69
2023/08/01 03:33:32;;;;;;;9.38;3.38;;;18.90;99.90;;;;;;4916660;29;20180;-69
2023/08/01 03:36:03;;;;;;;11.35;2.45;;;18.50;99.90;;;;;;4915553;29;20048;-68
2023/08/01 03:38:32;;;;;;;9.02;3.42;;;;;;;;;;4916596;29;20040;-68
2023/08/01 03:41:04;;;;;;;13.30;2.80;;;18.70;99.90;;;;;;4899708;29;20048;-70
2023/08/01 03:44:15;;;;;;;9.98;2.88;;;18.70;99.90;;;;;;4916583;29;20044;-70
2023/08/01 03:46:53;;;;;;;9.75;2.33;;;18.30;99.90;;;;;;4885149;29;20187;-70
2023/08/01 03:56:18;;;;;;;7.72;2.00;;;18.20;99.90;;;;;;4915150;29;20139;-70
2023/08/01 03:59:04;;;;;;;11.20;2.03;;;;;;;;;;4913460;29;20048;-70
2023/08/01 04:01:50;;;;;;;6.65;1.80;;;19.00;99.90;;;;;;4915956;29;20040;-70
2023/08/01 04:05:26;;;;;;;7.43;1.65;;;18.10;99.90;;;;;;4915933;29;20676;-71
2023/08/01 04:07:36;;;;;;;;;;;18.30;99.90;;;;;;4909892;29;20555;-71
2023/08/01 04:10:11;;;;;;;9.32;2.83;;;18.20;99.90;;;;;;4914863;29;20395;-70
2023/08/01 04:12:53;;;;;;;;;;;;;;;;;;;;;
2023/08/01 04:18:22;;;;;;;8.38;2.50;;;18.10;99.90;;;;;;4896053;29;20504;-70
2023/08/01 04:21:14;;;;;;;4.60;2.00;;;18.60;99.90;;;;;;4914712;29;20400;-70
2023/08/01 04:24:08;;;;;;;11.15;2.22;;;18.20;99.90;;;;;;4899278;29;20143;-71
2023/08/01 04:30:18;;;;;;;;;;;18.80;99.90;;;;;;4909690;29;20497;-71
2023/08/01 04:33:35;;;;;;;7.63;1.75;;;18.90;99.90;;;;;;4888689;29;20406;-71
2023/08/01 04:36:07;;;;;;;3.13;1.55;;;18.30;99.90;;;;;;4822433;29;20145;-71
2023/08/01 04:41:56;;;;;;;;;;;;;;;;;;;;;
2023/08/01 04:44:31;;;;;;;3.50;1.80;;;;;;;;;;4914649;29;20139;-70
2023/08/01 04:47:41;;;;;;;;;;;;;;;;;;;;;
2023/08/01 04:50:24;;;;;;;;;;;;;;;;;;;;;
2023/08/01 04:53:06;;;;;;;8.13;1.90;;;18.90;99.90;;;;;;4914339;29;20134;-71
2023/08/01 04:55:35;;;;;;;7.43;1.85;;;18.40;99.90;;;;;;4898573;29;20056;-70
2023/08/01 04:58:34;;;;;;;3.80;2.00;;;18.60;99.90;;;;;;4914760;29;20048;-72
2023/08/01 05:01:43;;;;;;;6.97;2.30;;;18.40;99.90;;;;;;4897925;29;20049;-71
2023/08/01 05:04:33;;;;;;;5.43;2.42;;;;;;;;;;4913621;29;20099;-70
2023/08/01 05:07:56;;;;;;;;;;;;;;;;;;;;;
2023/08/01 05:14:09;;;;;;;9.18;3.15;;;;;;;;;;4868694;29;20519;-71
2023/08/01 05:16:46;;;;;;;8.80;2.78;;;19.00;99.90;;;;;;4882745;29;20059;-73
2023/08/01 05:26:37;;;;;;;6.95;2.47;;;19.00;99.90;;;;;;4894216;29;20044;-71
2023/08/01 05:29:51;;;;;;;;;;;;;;;;;;;;;
2023/08/01 05:32:57;;;;;;;8.98;3.42;;;18.50;99.90;;;;;;4900609;29;20100;-71
2023/08/01 05:38:59;;;;;;;7.07;2.83;;;18.50;99.90;;;;;;4889433;29;20048;-70
2023/08/01 05:41:45;;;;;;;5.63;2.25;;;19.10;99.90;;;;;;4899126;29;20053;-70
2023/08/01 05:44:36;;;;;;;9.07;2.83;;;18.70;99.90;;;;;;4885317;29;20037;-70
2023/08/01 05:47:11;;;;;;;5.40;2.35;;;;;;;;;;4914244;29;20041;-70
2023/08/01 05:50:07;;;;;;;5.57;1.70;;;18.90;99.90;;;;;;4883310;29;20041;-71
2023/08/01 05:52:49;;;;;;;4.90;1.77;;;18.30;99.90;;;;;;4877997;29;20076;-71
2023/08/01 05:55:26;;;;;;;4.38;1.85;;;;;;;;;;4899043;29;20100;-71
2023/08/01 05:58:14;;;;;;;5.85;2.00;;;18.60;99.90;;;;;;4883150;29;20056;-71
2023/08/01 06:00:47;;;;;;;16.80;2.50;;;18.30;99.90;;;;;;4882408;29;20084;-71
2023/08/01 06:03:16;;;;;;;5.80;1.73;;;;;;;;;;4882630;29;20041;-71
2023/08/01 06:05:56;;;;;;;3.75;1.80;;;18.90;99.90;;;;;;4898651;29;20523;-71
2023/08/01 06:08:22;;;;;;;6.38;2.13;;;;;;;;;;4910542;23;20059;-69
2023/08/01 06:10:48;;;;;;;5.80;1.48;;;18.60;99.90;;;;;;4938073;29;20176;-69
2023/08/01 06:13:14;;;;;;;10.13;2.13;;;;;;;;;;4937911;29;20355;-69
2023/08/01 06:15:41;;;;;;;6.32;2.85;;;;;;;;;;4955731;29;20495;-70
2023/08/01 06:18:06;;;;;;;7.55;2.28;;;19.10;99.90;;;;;;4946653;29;20110;-70
2023/08/01 06:20:32;;;;;;;7.95;1.65;;;18.60;99.90;;;;;;4936462;29;20066;-70
2023/08/01 06:22:57;;;;;;;5.05;1.55;;;19.10;99.90;;;;;;4936556;29;20066;-70
2023/08/01 06:25:23;;;;;;;8.55;2.00;;;;;;;;;;4919728;29;20047;-70
2023/08/01 06:27:49;;;;;;;7.93;2.05;;;;;;;;;;4935254;29;20044;-70
2023/08/01 06:30:15;;;;;;;10.50;1.95;;;;;;;;;;4936314;29;20039;-70
2023/08/01 06:32:41;;;;;;;5.45;1.63;;;;;;;;;;4919441;29;20066;-70
2023/08/01 06:35:08;;;;;;;6.93;1.30;;;;;;;;;;4936413;29;20074;-70
2023/08/01 06:37:34;;;;;;;13.20;2.63;;;;;;;;;;4919341;29;20058;-70
2023/08/01 06:40:01;;;;;;;9.35;1.70;;;19.20;99.90;;;;;;4919147;29;20051;-70
2023/08/01 06:42:26;;;;;;;6.45;1.60;;;18.80;99.90;;;;;;4935880;29;20047;-70
2023/08/01 06:44:52;;;;;;;10.68;1.42;;;19.00;99.90;;;;;;4919073;29;20047;-70
2023/08/01 06:47:18;;;;;;;6.45;1.20;;;;;;;;;;4919005;29;20582;-70
2023/08/01 06:49:44;;;;;;;8.15;1.55;;;;;;;;;;4918900;29;20046;-70
2023/08/01 06:52:10;;;;;;;7.68;2.22;;;18.90;99.90;;;;;;4918995;29;20523;-70
2023/08/01 06:54:35;;;;;;;13.93;2.33;;;19.40;99.90;;;;;;4920312;29;20245;-70
2023/08/01 06:57:01;;;;;;;14.00;1.80;;;19.00;99.90;;;;;;4922197;29;20044;-70
2023/08/01 06:59:26;;;;;;;9.20;1.70;;;19.10;99.90;;;;;;4920021;29;20062;-70
2023/08/01 07:01:52;;;;;;;6.35;1.23;;;19.40;99.90;;;;;;4919964;29;20079;-70
2023/08/01 07:04:18;;;;;;;9.10;1.60;;;;;;;;;;4920279;29;20046;-70
2023/08/01 07:06:44;;;;;;;7.05;1.30;;;19.20;99.90;;;;;;4936288;29;20091;-70
2023/08/01 07:09:10;;;;;;;11.02;2.05;;;19.20;99.90;;;;;;4936140;29;20040;-70
2023/08/01 07:11:35;;;;;;;5.38;1.40;;;19.00;99.90;;;;;;4918720;29;20054;-70
2023/08/01 07:14:01;;;;;;;5.88;1.30;;;18.70;99.90;;;;;;4919084;29;20043;-70
2023/08/01 07:16:27;;;;;;;6.97;1.63;;;19.20;99.90;;;;;;4918928;29;20043;-70
2023/08/01 07:18:52;;;;;;;5.45;1.33;;;18.60;99.90;;;;;;4903502;29;20419;-70
2023/08/01 07:21:18;;;;;;;8.02;1.65;;;;;;;;;;4935867;29;20515;-70
2023/08/01 07:23:44;;;;;;;7.50;2.13;;;18.90;99.90;;;;;;4917838;29;20496;-70
2023/08/01 07:26:10;;;;;;;7.07;1.77;;;;;;;;;;4919196;29;20055;-70
2023/08/01 07:28:36;;;;;;;5.88;1.77;;;18.80;99.90;;;;;;4918799;29;20040;-69
2023/08/01 07:31:04;;;;;;;5.93;1.88;;;19.10;99.90;;;;;;4918375;29;20036;-70
2023/08/01 07:33:31;;;;;;;6.93;1.63;;;19.40;99.90;;;;;;4918671;29;20083;-70
2023/08/01 07:35:57;;;;;;;7.97;2.10;;;;;;;;;;4918742;29;20442;-70
2023/08/01 07:38:23;;;;;;;7.78;2.45;;;;;;;;;;4918383;29;20049;-70
2023/08/01 07:40:49;;;;;;;10.65;2.42;;;19.30;99.90;;;;;;4918440;29;20504;-70
2023/08/01 07:43:15;;;;;;;9.25;2.50;;;19.60;99.90;;;;;;4918491;29;20043;-70
2023/08/01 07:45:40;;;;;;;8.40;2.30;;;19.20;99.90;;;;;;4918588;29;20463;-69
2023/08/01 07:48:06;;;;;;;10.73;2.28;;;19.30;99.90;;;;;;4935402;29;20043;-69
2023/08/01 07:50:32;;;;;;;4.93;1.95;;;19.30;99.90;;;;;;4917885;29;20039;-69
2023/08/01 07:52:57;;;;;;;12.02;1.85;;;19.00;99.90;;;;;;4918339;29;20475;-69
2023/08/01 07:55:23;;;;;;;12.15;3.22;;;19.10;99.90;;;;;;4917871;29;20082;-69
2023/08/01 07:57:49;;;;;;;8.32;1.40;;;;;;;;;;4918176;29;20081;-69
2023/08/01 08:00:15;;;;;;;5.75;2.00;;;19.30;99.90;;;;;;4918045;29;20059;-69
2023/08/01 08:02:42;;;;;;;9.50;2.17;;;19.20;99.90;;;;;;4917877;29;20393;-70
2023/08/01 08:05:08;;;;;;;7.93;1.80;;;19.20;99.90;;;;;;4902215;29;20070;-70
2023/08/01 08:07:34;;;;;;;11.15;2.05;;;19.20;99.90;;;;;;4935309;29;20040;-70
2023/08/01 08:10:00;;;;;;;7.97;1.70;;;18.60;99.90;;;;;;4918000;29;20039;-70
2023/08/01 08:12:25;;;;;;;8.70;1.85;;;18.60;99.90;;;;;;4917739;29;20055;-69
2023/08/01 08:14:51;;;;;;;10.52;2.38;;;19.30;99.90;;;;;;4902323;29;20070;-70
2023/08/01 08:17:17;;;;;;;6.22;1.80;;;19.50;99.90;;;;;;4934975;29;20043;-70
2023/08/01 08:19:42;;;;;;;5.07;1.75;;;18.90;99.90;;;;;;4918049;29;20138;-70
2023/08/01 08:22:08;;;;;;;7.97;1.75;;;;;;;;;;4917756;29;20504;-70
2023/08/01 08:24:34;;;;;;;9.75;1.90;;;;;;;;;;4934800;29;20036;-70
2023/08/01 08:27:00;;;;;;;8.73;1.92;;;19.10;99.90;;;;;;4934964;29;20042;-70
2023/08/01 08:29:25;;;;;;;6.18;1.70;;;19.40;99.90;;;;;;4935002;29;20032;-70
2023/08/01 08:31:51;;;;;;;10.00;2.30;;;19.30;99.90;;;;;;4934757;29;20043;-70
2023/08/01 08:34:17;;;;;;;8.30;1.73;;;19.20;99.90;;;;;;4934408;29;20517;-70
2023/08/01 08:36:42;;;;;;;6.32;1.50;;;20.10;99.90;;;;;;4934208;29;20082;-70
2023/08/01 08:39:08;;;;;;;7.95;1.90;;;19.70;99.90;;;;;;4917116;29;20098;-70
2023/08/01 08:41:42;;;;;;;6.57;1.85;;;20.00;99.90;;;;;;4934061;29;20041;-70
2023/08/01 08:44:09;;;;;;;6.05;1.50;;;20.00;99.90;;;;;;4917362;29;20047;-70
2023/08/01 08:46:43;;;;;;;8.82;2.00;;;20.20;99.90;;;;;;4901584;29;20044;-70
2023/08/01 08:49:09;;;;;;;7.78;2.33;;;21.10;99.90;;;;;;4917228;29;20032;-70
2023/08/01 08:51:36;;;;;;;6.78;1.58;;;20.30;99.90;;;;;;4934076;29;20047;-70
2023/08/01 08:54:03;;;;;;;7.00;1.95;;;19.90;99.90;;;;;;4934329;29;20044;-70
2023/08/01 08:56:29;;;;;;;7.38;1.52;;;20.40;99.90;;;;;;4934355;29;20087;-69
2023/08/01 08:58:56;;;;;;;6.05;1.75;;;20.10;99.90;;;;;;4934371;29;20043;-69
2023/08/01 09:01:21;;;;;;;9.07;2.15;;;20.70;99.90;;;;;;4916889;29;20043;-69
2023/08/01 09:03:47;;;;;;;4.63;1.30;;;20.60;99.90;;;;;;4917125;29;20047;-69
2023/08/01 09:06:19;;;;;;;3.63;1.20;;;19.90;99.90;;;;;;4934080;29;20039;-69
2023/08/01 09:09:01;;;;;;;5.03;1.30;;;19.70;99.90;;;;;;4917024;29;20075;-69
2023/08/01 09:11:26;;;;;;;4.13;1.08;;;19.90;99.90;;;;;;4934157;29;20047;-69
2023/08/01 09:13:53;;;;;;;4.55;1.40;;;19.70;99.90;;;;;;4934271;29;20087;-69
2023/08/01 09:16:19;;;;;;;6.15;1.10;;;;;;;;;;4917131;29;20040;-69
2023/08/01 09:18:51;;;;;;;5.75;1.48;;;19.90;99.90;;;;;;4916912;29;20044;-70
2023/08/01 09:21:20;;;;;;;3.70;1.60;;;20.00;99.90;;;;;;4916781;29;20040;-69
2023/08/01 09:23:47;;;;;;;9.25;1.83;;;20.40;99.90;;;;;;4934319;29;20042;-69
2023/08/01 09:26:17;;;;;;;6.57;1.73;;;20.50;99.90;;;;;;4917248;29;20090;-69
2023/08/01 09:28:43;;;;;;;7.45;1.92;;;20.50;99.90;;;;;;4916816;29;20039;-69
2023/08/01 09:31:10;;;;;;;9.18;2.58;;;20.50;99.90;;;;;;4916704;29;20074;-69
2023/08/01 09:33:42;;;;;;;7.50;2.30;;;20.80;99.90;;;;;;4917095;29;20161;-70
2023/08/01 09:36:08;;;;;;;21.55;2.78;;;20.10;99.90;;;;;;4916842;29;20051;-70
2023/08/01 09:38:37;;;;;;;8.85;2.85;;;20.30;99.90;;;;;;4916876;29;20142;-70
2023/08/01 09:41:06;;;;;;;4.80;1.60;;;19.70;99.90;;;;;;4933736;29;20058;-69
2023/08/01 09:43:36;;;;;;;9.70;2.15;;;20.30;99.90;;;;;;4916703;29;20048;-69
2023/08/01 09:46:03;;;;;;;10.38;2.58;;;20.10;99.90;;;;;;4916661;29;20096;-69
2023/08/01 09:48:29;;;;;;;8.65;2.55;;;20.20;99.90;;;;;;4919329;29;20530;-69
2023/08/01 09:51:27;;;;;;;6.75;2.60;;;20.90;99.90;;;;;;4936983;29;20102;-69
2023/08/01 09:53:55;;;;;;;7.07;2.60;;;20.40;99.90;;;;;;4879269;29;20496;-69
2023/08/01 09:56:26;;;;;;;10.05;2.47;;;21.00;99.90;;;;;;4919953;29;20050;-69
2023/08/01 09:58:54;;;;;;;7.43;2.70;;;21.00;99.90;;;;;;4937054;29;20040;-69
2023/08/01 10:01:23;;;;;;;12.43;2.97;;;20.90;99.90;;;;;;4919678;29;20040;-70
2023/08/01 10:03:53;;;;;;;17.15;2.83;;;21.10;99.90;;;;;;4936976;29;20051;-71
2023/08/01 10:06:19;;;;;;;8.27;2.38;;;21.20;99.90;;;;;;4919970;29;20074;-71
2023/08/01 10:08:46;;;;;;;7.47;2.70;;;21.20;99.90;;;;;;4919577;29;20043;-70
2023/08/01 10:11:17;;;;;;;13.13;2.92;;;21.00;99.90;;;;;;4919610;29;20051;-70
2023/08/01 10:13:43;;;;;;;10.20;2.58;;;21.30;99.90;;;;;;4919767;29;20415;-70
2023/08/01 10:16:10;;;;;;;7.32;1.90;;;21.60;99.90;;;;;;4919862;29;20186;-70
2023/08/01 10:18:38;;;;;;;10.13;2.22;;;21.20;99.90;;;;;;4936688;29;20047;-70
2023/08/01 10:21:09;;;;;;;3.30;1.85;;;21.20;99.90;;;;;;4936347;29;20051;-70
2023/08/01 10:23:35;;;;;;;7.70;1.88;;;21.80;99.90;;;;;;4919538;29;20122;-70
2023/08/01 10:26:04;;;;;;;8.68;2.50;;;21.50;99.90;;;;;;4936759;29;20213;-70
2023/08/01 10:28:35;;;;;;;6.60;1.30;;;21.70;99.90;;;;;;4936573;29;20087;-70
2023/08/01 10:31:11;;;;;;;10.32;1.88;;;21.60;99.90;;;;;;4919375;29;20130;-70
2023/08/01 10:33:38;;;;;;;5.60;1.40;;;21.50;99.90;;;;;;4919316;29;20134;-70
2023/08/01 10:36:14;;;;;;;7.82;1.83;;;22.00;99.90;;;;;;4919586;29;20436;-70
2023/08/01 10:38:56;;;;;;;10.90;1.77;;;22.20;99.90;;;;;;4903460;29;20492;-70
2023/08/01 10:41:25;;;;;;;9.38;1.83;;;22.00;99.90;;;;;;4919018;29;20039;-69
2023/08/01 10:43:50;;;;;;;6.55;2.05;;;22.10;99.90;;;;;;4936303;29;20066;-70
2023/08/01 10:46:16;;;;;;;8.02;1.25;;;21.90;99.90;;;;;;4936041;29;20487;-69
2023/08/01 10:48:52;;;;;;;7.90;1.50;;;22.00;99.90;;;;;;4919041;29;20047;-70
2023/08/01 10:51:18;;;;;;;6.78;1.40;;;21.90;99.90;;;;;;4918735;29;20522;-70
2023/08/01 10:53:44;;;;;;;9.27;1.52;;;21.80;99.90;;;;;;4919060;29;20039;-70
2023/08/01 10:56:17;;;;;;;6.32;1.80;;;22.10;99.90;;;;;;4936097;29;20043;-70
2023/08/01 10:58:42;;;;;;;8.50;1.40;;;22.40;99.90;;;;;;4935551;29;20314;-70
2023/08/01 11:01:08;;;;;;;5.55;1.45;;;22.40;99.90;;;;;;4918254;29;20043;-70
2023/08/01 11:03:38;;;;;;;8.00;2.00;;;22.50;99.90;;;;;;4918937;29;20416;-70
2023/08/01 11:06:04;;;;;;;5.40;1.05;;;22.40;99.90;;;;;;4935869;29;20031;-70
2023/08/01 11:08:40;;;;;;;4.40;1.15;;;22.30;99.90;;;;;;4935615;29;20090;-70
2023/08/01 11:11:11;;;;;;;4.75;1.50;;;22.00;99.90;;;;;;4918469;29;20090;-69
2023/08/01 11:13:36;;;;;;;3.45;1.17;;;22.10;99.90;;;;;;4935735;29;20087;-70
2023/08/01 11:16:04;;;;;;;9.23;1.50;;;22.50;99.90;;;;;;4935785;29;20479;-70
2023/08/01 11:18:30;;;;;;;6.95;1.60;;;22.40;99.90;;;;;;4918735;29;20073;-69
2023/08/01 11:20:56;;;;;;;5.22;1.63;;;22.60;99.90;;;;;;4918420;29;20047;-70
2023/08/01 11:23:28;;;;;;;4.35;1.40;;;22.60;99.90;;;;;;4938240;29;20055;-70
2023/08/01 11:25:54;;;;;;;5.87;1.23;;;22.40;99.90;;;;;;4903820;29;20333;-69
2023/08/01 11:28:20;;;;;;;6.18;1.60;;;22.30;99.90;;;;;;4935931;29;20439;-69
2023/08/01 11:30:46;;;;;;;7.53;1.63;;;22.10;99.90;;;;;;4934503;29;20353;-69
2023/08/01 11:33:23;;;;;;;9.32;2.33;;;22.50;99.90;;;;;;4903167;29;20047;-69
2023/08/01 11:35:53;;;;;;;9.50;2.03;;;22.90;99.90;;;;;;4935808;29;20491;-69
2023/08/01 11:38:21;;;;;;;2.50;1.15;;;22.80;99.90;;;;;;4918795;29;20051;-70
2023/08/01 11:40:49;;;;;;;6.32;1.52;;;22.80;99.90;;;;;;4935606;29;20040;-69
2023/08/01 11:43:15;;;;;;;5.07;1.35;;;23.90;99.90;;;;;;4918653;29;20114;-69
2023/08/01 11:45:54;;;;;;;8.32;1.95;;;22.40;99.90;;;;;;4935548;29;20179;-69
2023/08/01 11:48:23;;;;;;;9.27;1.65;;;23.10;99.90;;;;;;4935712;29;20082;-70
2023/08/01 11:50:56;;;;;;;6.88;1.67;;;22.50;99.90;;;;;;4918394;29;20087;-69
2023/08/01 11:53:22;;;;;;;6.63;1.43;;;22.60;99.90;;;;;;4918546;29;20040;-70
2023/08/01 11:55:52;;;;;;;5.65;1.60;;;22.70;99.90;;;;;;4918700;29;20058;-70
2023/08/01 11:58:31;;;;;;;19.38;2.53;;;23.20;99.90;;;;;;4918290;29;20040;-70
2023/08/01 12:01:11;;;;;;;6.13;1.77;;;23.10;99.90;;;;;;4935292;29;20047;-70
2023/08/01 12:03:46;;;;;;;3.67;1.30;;;22.90;99.90;;;;;;4935609;29;20099;-70
2023/08/01 12:06:16;;;;;;;5.85;1.80;;;22.50;99.90;;;;;;4918226;29;20098;-70
2023/08/01 12:11:29;;;;;;;4.90;1.58;;;21.80;99.90;;;;;;4932071;29;20106;-69
2023/08/01 12:14:27;;;;;;;6.75;2.25;;;21.90;99.90;;;;;;4902219;29;20047;-69
2023/08/01 12:23:04;;;;;;;;;;;;;;;;;;;;;
2023/08/01 12:26:05;;;;;;;8.93;2.13;;;22.20;99.90;;;;;;4915951;29;20048;-70
2023/08/01 12:29:05;;;;;;;9.77;2.17;;;21.90;99.90;;;;;;4899451;29;20044;-69
2023/08/01 12:35:38;;;;;;;;;;;;;;;;;;;;;
2023/08/01 12:39:26;;;;;;;8.30;1.92;;;21.80;99.90;;;;;;4916007;29;20044;-70
2023/08/01 12:41:32;;;;;;;8.05;2.33;;;21.50;99.90;;;;;;4879136;29;20052;-69
2023/08/01 12:44:28;;;;;;;7.40;1.88;;;21.10;99.90;;;;;;4884900;29;20040;-69
2023/08/01 12:47:14;;;;;;;;;;;;;;;;;;;;;
2023/08/01 12:50:05;;;;;;;6.28;1.85;;;21.00;99.90;;;;;;4897496;29;20048;-69
2023/08/01 12:52:55;;;;;;;;;;;;;;;;;;;;;
2023/08/01 12:55:27;;;;;;;5.43;2.22;;;21.80;99.90;;;;;;4897691;29;20056;-69
2023/08/01 12:58:01;;;;;;;7.85;2.28;;;21.60;99.90;;;;;;4898038;29;20044;-69
2023/08/01 13:00:53;;;;;;;9.77;2.53;;;21.40;99.90;;;;;;4898746;29;20056;-69
2023/08/01 13:03:29;;;;;;;10.35;2.15;;;21.40;99.90;;;;;;4898633;29;20491;-69
2023/08/01 13:06:24;;;;;;;7.85;2.60;;;21.40;99.90;;;;;;4883563;29;20036;-69
2023/08/01 13:09:06;;;;;;;8.57;1.67;;;21.20;99.90;;;;;;4915699;29;20036;-69
2023/08/01 13:15:36;;;;;;;9.02;2.53;;;21.50;99.90;;;;;;4912890;29;20531;-69
2023/08/01 13:21:28;;;;;;;8.68;2.17;;;21.10;99.90;;;;;;4912881;29;20044;-69
2023/08/01 13:23:54;;;;;;;5.40;1.58;;;;;;;;;;4902432;29;20044;-69
2023/08/01 13:29:40;;;;;;;12.45;1.92;;;20.90;99.90;;;;;;4902012;29;20103;-69
2023/08/01 13:32:17;;;;;;;6.53;2.05;;;21.30;99.90;;;;;;4886785;29;20040;-69
2023/08/01 13:35:30;;;;;;;7.28;2.50;;;21.10;99.90;;;;;;4886864;29;20044;-69
2023/08/01 13:38:17;;;;;;;8.15;1.98;;;21.30;99.90;;;;;;4901307;29;20056;-69
2023/08/01 13:41:10;;;;;;;5.82;1.67;;;21.60;99.90;;;;;;4918491;29;20051;-70
2023/08/01 13:44:20;;;;;;;9.05;2.05;;;21.50;99.90;;;;;;4902574;29;20139;-69
2023/08/01 13:47:03;;;;;;;4.30;1.35;;;21.50;99.90;;;;;;4901393;29;20056;-69
2023/08/01 13:49:37;;;;;;;4.85;1.90;;;;;;;;;;4901795;29;20051;-69
2023/08/01 13:52:14;;;;;;;6.00;1.90;;;21.40;99.90;;;;;;4918698;29;20084;-69
2023/08/01 13:54:56;;;;;;;5.97;1.50;;;;;;;;;;4901708;29;20068;-70
2023/08/01 14:01:22;;;;;;;;;;;;;;;;;;;;;
2023/08/01 14:04:14;;;;;;;7.00;1.60;;;21.10;99.90;;;;;;4901866;29;20460;-69
2023/08/01 14:06:46;;;;;;;2.33;1.30;;;21.10;99.90;;;;;;4901891;29;20040;-69
2023/08/01 14:09:14;;;;;;;5.63;1.38;;;;;;;;;;4901438;29;20059;-69
2023/08/01 14:12:03;;;;;;;2.22;1.10;;;20.90;99.90;;;;;;4901440;29;20400;-69
2023/08/01 14:14:57;;;;;;;4.07;1.30;;;21.10;99.90;;;;;;4918216;29;20151;-69
2023/08/01 14:17:36;;;;;;;;;;;;;;;;;;;;;
2023/08/01 14:20:18;;;;;;;6.38;1.50;;;;;;;;;;4918090;29;20128;-69
2023/08/01 14:26:58;;;;;;;14.52;2.55;;;21.30;99.90;;;;;;4860424;29;20046;-69
2023/08/01 14:29:58;;;;;;;;;;;;;;;;;;;;;
2023/08/01 14:32:39;;;;;;;6.45;1.88;;;21.00;99.90;;;;;;4900667;29;20115;-69
2023/08/01 14:35:38;;;;;;;;;;;;;;;;;;;;;
2023/08/01 14:41:43;;;;;;;;;;;20.90;99.90;;;;;;4867824;29;20539;-69
2023/08/01 14:44:46;;;;;;;12.18;2.25;;;21.30;99.90;;;;;;4901305;29;19918;-68
2023/08/01 14:47:47;;;;;;;6.53;2.10;;;20.50;99.90;;;;;;4911116;29;20469;-69
2023/08/01 14:50:48;;;;;;;11.02;2.00;;;20.60;99.90;;;;;;4901133;29;20063;-70
2023/08/01 14:56:33;;;;;;;7.88;2.28;;;20.40;99.90;;;;;;4900612;29;20044;-69
2023/08/01 14:59:15;;;;;;;10.88;2.47;;;20.30;99.90;;;;;;4896317;29;20508;-69
2023/08/01 15:05:19;;;;;;;9.18;2.22;;;;;;;;;;4841385;29;20049;-69
2023/08/01 15:08:10;;;;;;;;;;;;;;;;;;;;;
2023/08/01 15:10:44;;;;;;;8.38;1.90;;;20.60;99.90;;;;;;4884814;29;20337;-69
2023/08/01 15:14:08;;;;;;;12.75;2.65;;;20.50;99.90;;;;;;4900602;29;20047;-69
2023/08/01 15:17:01;;;;;;;;;;;;;;;;;;;;;
2023/08/01 15:19:43;;;;;;;3.88;1.50;;;21.00;99.90;;;;;;4899904;29;20424;-69
2023/08/01 15:22:20;;;;;;;8.32;2.42;;;;;;;;;;4899832;29;20052;-71
2023/08/01 15:25:09;;;;;;;5.90;2.25;;;21.50;99.90;;;;;;4899992;29;20496;-69
2023/08/01 15:28:05;;;;;;;4.45;1.50;;;21.00;99.90;;;;;;4900320;29;20040;-69
2023/08/01 15:31:03;;;;;;;5.03;1.17;;;21.00;99.90;;;;;;4900102;29;20401;-69
2023/08/01 15:33:56;;;;;;;6.53;1.27;;;21.10;99.90;;;;;;4916844;29;20044;-69
2023/08/01 15:36:48;;;;;;;8.88;2.08;;;21.40;99.90;;;;;;4916879;29;20052;-69
2023/08/01 15:39:44;;;;;;;6.05;1.83;;;21.20;99.90;;;;;;4899611;29;20054;-69
2023/08/01 15:42:22;;;;;;;7.63;1.80;;;21.30;99.90;;;;;;4899525;29;20123;-69
2023/08/01 15:45:14;;;;;;;;;;;;;;;;;;;;;
2023/08/01 15:47:59;;;;;;;6.93;2.15;;;21.30;99.90;;;;;;4886429;29;20048;-69
2023/08/01 15:50:46;;;;;;;6.40;1.50;;;21.00;99.90;;;;;;4899234;29;20064;-70
2023/08/01 15:53:24;;;;;;;5.55;1.77;;;21.50;99.90;;;;;;4884941;29;20039;-69
2023/08/01 15:56:31;;;;;;;5.18;1.30;;;21.50;99.90;;;;;;4898282;29;20052;-69
2023/08/01 15:59:35;;;;;;;5.43;1.40;;;21.60;99.90;;;;;;4903994;29;20129;-69
2023/08/01 16:05:37;;;;;;;6.10;1.40;;;21.60;99.90;;;;;;4890720;29;20496;-69
2023/08/01 16:08:16;;;;;;;;;;;;;;;;;;;;;
2023/08/01 16:11:32;;;;;;;;;;;;;;;;;;;;;
2023/08/01 16:14:33;;;;;;;6.45;1.50;;;22.10;99.90;;;;;;4899024;29;20048;-69
2023/08/01 16:24:01;;;;;;;8.55;1.50;;;21.40;99.90;;;;;;4897678;29;20056;-69
2023/08/01 16:27:20;;;;;;;9.50;1.50;;;21.40;99.90;;;;;;4843323;29;20057;-70
2023/08/01 16:30:26;;;;;;;5.60;1.55;;;21.40;99.90;;;;;;4883671;29;20456;-70
2023/08/01 16:33:13;;;;;;;;;;;;;;;;;;;;;
2023/08/01 16:36:03;;;;;;;3.40;1.20;;;21.70;99.90;;;;;;4897980;29;20055;-69
2023/08/01 16:38:32;;;;;;;6.38;1.48;;;;;;;;;;4893080;29;20052;-69
2023/08/01 16:41:29;;;;;;;2.92;1.05;;;21.30;99.90;;;;;;4898650;29;20507;-70
2023/08/01 16:44:45;;;;;;;3.20;1.13;;;21.30;99.90;;;;;;4872842;29;20048;-72
2023/08/01 16:47:54;;;;;;;4.47;1.20;;;21.10;99.90;;;;;;4863599;29;20104;-70
2023/08/01 16:53:34;;;;;;;5.20;1.47;;;;;;;;;;4898476;29;20059;-70